createdAt,value
2023-03-06T00:00:16.566Z,2.69
2023-03-06T00:02:43.013Z,2.79
2023-03-06T00:05:09.491Z,2.22
2023-03-06T00:07:35.926Z,2.83
2023-03-06T00:10:02.332Z,2.75
2023-03-06T00:12:28.713Z,2.78
2023-03-06T00:14:55.245Z,2.27
2023-03-06T00:17:21.873Z,2.63
2023-03-06T00:19:48.290Z,2.56
2023-03-06T00:22:15.374Z,2.52
2023-03-06T00:24:42.948Z,2.43
2023-03-06T00:27:09.980Z,2.71
2023-03-06T00:29:36.525Z,2.72
2023-03-06T00:32:02.962Z,2.77
2023-03-06T00:34:29.450Z,2.03
2023-03-06T00:36:55.900Z,2.05
2023-03-06T00:39:22.595Z,2.72
2023-03-06T00:41:49.070Z,2.64
2023-03-06T00:44:15.529Z,2.58
2023-03-06T00:46:42.000Z,2.78
2023-03-06T00:49:08.458Z,2.32
2023-03-06T00:51:34.942Z,2.46
2023-03-06T00:54:01.326Z,1.89
2023-03-06T00:56:27.737Z,2.45
2023-03-06T00:58:54.157Z,2.05
2023-03-06T01:01:20.654Z,2.46
2023-03-06T01:03:47.074Z,2.53
2023-03-06T01:06:13.473Z,2.35
2023-03-06T01:08:39.944Z,2.56
2023-03-06T01:11:06.386Z,2.29
2023-03-06T01:13:32.791Z,2.40
2023-03-06T01:16:10.288Z,2.49
2023-03-06T01:18:37.417Z,2.35
2023-03-06T01:21:04.707Z,2.60
2023-03-06T01:23:31.294Z,2.32
2023-03-06T01:25:57.764Z,1.68
2023-03-06T01:28:24.952Z,2.55
2023-03-06T01:30:51.415Z,2.26
2023-03-06T01:33:17.875Z,2.48
2023-03-06T01:35:44.620Z,2.32
2023-03-06T01:38:11.091Z,2.21
2023-03-06T01:40:37.903Z,2.05
2023-03-06T01:43:26.570Z,2.41
2023-03-06T01:45:53.015Z,2.39
2023-03-06T01:48:22.050Z,2.32
2023-03-06T01:50:49.778Z,2.14
2023-03-06T01:53:16.329Z,2.13
2023-03-06T01:55:42.764Z,2.12
2023-03-06T01:58:12.670Z,2.05
2023-03-06T02:00:39.203Z,2.20
2023-03-06T02:03:08.925Z,2.24
2023-03-06T02:05:35.961Z,2.08
2023-03-06T02:08:03.229Z,2.03
2023-03-06T02:10:30.284Z,1.64
2023-03-06T02:12:56.795Z,1.65
2023-03-06T02:15:25.726Z,1.47
2023-03-06T02:17:52.530Z,2.23
2023-03-06T02:20:36.599Z,2.16
2023-03-06T02:23:11.030Z,2.18
2023-03-06T02:25:40.712Z,2.11
2023-03-06T02:28:09.117Z,1.65
2023-03-06T02:30:36.227Z,2.27
2023-03-06T02:33:03.370Z,2.24
2023-03-06T02:35:32.082Z,2.23
2023-03-06T02:38:01.958Z,1.75
2023-03-06T02:40:28.523Z,1.80
2023-03-06T02:42:56.812Z,1.65
2023-03-06T02:45:32.634Z,2.25
2023-03-06T02:47:59.152Z,2.22
2023-03-06T02:50:25.692Z,2.10
2023-03-06T02:52:52.131Z,1.85
2023-03-06T02:55:18.767Z,2.40
2023-03-06T02:57:45.158Z,2.35
2023-03-06T03:00:12.230Z,2.20
2023-03-06T03:02:38.804Z,2.22
2023-03-06T03:05:05.737Z,2.11
2023-03-06T03:07:32.296Z,1.83
2023-03-06T03:09:58.864Z,2.60
2023-03-06T03:12:25.347Z,2.34
2023-03-06T03:14:51.756Z,2.40
2023-03-06T03:17:18.148Z,2.27
2023-03-06T03:19:44.584Z,2.46
2023-03-06T03:22:11.004Z,2.47
2023-03-06T03:24:37.464Z,2.56
2023-03-06T03:27:03.990Z,2.63
2023-03-06T03:29:30.430Z,2.41
2023-03-06T03:31:56.844Z,2.59
2023-03-06T03:34:23.249Z,2.57
2023-03-06T03:36:49.637Z,2.34
2023-03-06T03:39:16.257Z,2.74
2023-03-06T03:41:42.892Z,2.67
2023-03-06T03:44:10.023Z,2.67
2023-03-06T03:46:36.522Z,2.29
2023-03-06T03:49:03.061Z,2.82
2023-03-06T03:51:29.584Z,2.10
2023-03-06T03:53:57.983Z,2.61
2023-03-06T03:56:25.290Z,2.90
2023-03-06T03:58:51.969Z,2.62
2023-03-06T04:01:18.701Z,2.59
2023-03-06T04:03:45.221Z,2.94
2023-03-06T04:06:11.700Z,2.32
2023-03-06T04:08:38.149Z,2.73
2023-03-06T04:11:05.090Z,2.64
2023-03-06T04:13:31.575Z,2.34
2023-03-06T04:15:59.570Z,2.85
2023-03-06T04:18:26.177Z,2.83
2023-03-06T04:20:52.986Z,2.59
2023-03-06T04:23:20.299Z,2.66
2023-03-06T04:25:47.002Z,2.99
2023-03-06T04:28:13.596Z,2.64
2023-03-06T04:30:40.047Z,2.83
2023-03-06T04:33:06.528Z,2.47
2023-03-06T04:35:33.022Z,3.08
2023-03-06T04:37:59.470Z,3.09
2023-03-06T04:40:28.630Z,3.06
2023-03-06T04:42:59.168Z,3.00
2023-03-06T04:45:25.973Z,3.02
2023-03-06T04:47:52.392Z,2.72
2023-03-06T04:50:19.984Z,2.46
2023-03-06T04:52:46.528Z,3.28
2023-03-06T04:55:15.227Z,3.04
2023-03-06T04:57:43.273Z,3.22
2023-03-06T05:00:14.595Z,3.29
2023-03-06T05:02:43.418Z,3.24
2023-03-06T05:05:11.080Z,3.15
2023-03-06T05:07:38.014Z,3.23
2023-03-06T05:10:04.842Z,3.05
2023-03-06T05:12:31.230Z,3.25
2023-03-06T05:14:58.048Z,2.63
2023-03-06T05:17:24.476Z,2.90
2023-03-06T05:19:50.978Z,3.15
2023-03-06T05:22:17.427Z,3.18
2023-03-06T05:24:43.872Z,3.12
2023-03-06T05:27:10.273Z,2.56
2023-03-06T05:29:36.683Z,3.34
2023-03-06T05:32:03.234Z,3.11
2023-03-06T05:34:29.745Z,2.95
2023-03-06T05:36:56.190Z,3.19
2023-03-06T05:39:22.602Z,2.96
2023-03-06T05:41:48.999Z,2.71
2023-03-06T05:44:15.438Z,3.25
2023-03-06T05:46:41.893Z,2.76
2023-03-06T05:49:08.346Z,2.74
2023-03-06T05:51:34.756Z,2.71
2023-03-06T05:54:01.181Z,2.96
2023-03-06T05:56:27.668Z,3.18
2023-03-06T05:58:54.094Z,3.17
2023-03-06T06:01:21.553Z,2.80
2023-03-06T06:03:48.085Z,2.41
2023-03-06T06:06:15.585Z,3.15
2023-03-06T06:08:42.457Z,3.25
2023-03-06T06:11:10.148Z,3.10
2023-03-06T06:13:37.014Z,3.00
2023-03-06T06:16:16.105Z,3.05
2023-03-06T06:18:43.223Z,3.04
2023-03-06T06:21:11.970Z,3.36
2023-03-06T06:23:38.365Z,2.60
2023-03-06T06:26:06.578Z,3.34
2023-03-06T06:28:33.516Z,3.30
2023-03-06T06:31:00.327Z,3.16
2023-03-06T06:33:27.207Z,2.85
2023-03-06T06:35:53.681Z,3.34
2023-03-06T06:38:20.199Z,2.84
2023-03-06T06:41:04.219Z,3.43
2023-03-06T06:43:33.029Z,3.41
2023-03-06T06:46:19.567Z,3.48
2023-03-06T06:48:48.266Z,3.33
2023-03-06T06:51:15.234Z,3.76
2023-03-06T06:53:41.821Z,3.30
2023-03-06T06:56:08.291Z,3.38
2023-03-06T06:58:34.723Z,3.26
2023-03-06T07:01:06.430Z,3.74
2023-03-06T07:03:33.073Z,3.88
2023-03-06T07:05:59.488Z,3.78
2023-03-06T07:08:25.926Z,3.86
2023-03-06T07:10:52.413Z,3.09
2023-03-06T07:13:18.866Z,3.93
2023-03-06T07:15:45.391Z,3.95
2023-03-06T07:18:11.842Z,3.43
2023-03-06T07:20:38.222Z,3.70
2023-03-06T07:23:04.631Z,3.79
2023-03-06T07:25:31.089Z,4.10
2023-03-06T07:27:57.586Z,4.08
2023-03-06T07:30:24.539Z,4.47
2023-03-06T07:32:58.055Z,4.39
2023-03-06T07:35:27.390Z,3.98
2023-03-06T07:37:53.979Z,4.66
2023-03-06T07:40:21.090Z,3.95
2023-03-06T07:42:47.558Z,4.36
2023-03-06T07:45:14.086Z,4.73
2023-03-06T07:47:40.558Z,5.03
2023-03-06T07:50:07.774Z,4.54
2023-03-06T07:52:34.396Z,5.15
2023-03-06T07:55:00.779Z,5.11
2023-03-06T07:57:27.199Z,5.47
2023-03-06T07:59:53.699Z,5.50
2023-03-06T08:02:20.113Z,5.57
2023-03-06T08:04:53.214Z,5.60
2023-03-06T08:07:20.300Z,5.30
2023-03-06T08:09:46.716Z,5.51
2023-03-06T08:12:14.688Z,5.44
2023-03-06T08:14:42.220Z,5.37
2023-03-06T08:17:08.757Z,5.36
2023-03-06T08:19:35.166Z,5.43
2023-03-06T08:22:01.623Z,5.65
2023-03-06T08:24:28.071Z,5.86
2023-03-06T08:26:54.450Z,5.84
2023-03-06T08:29:20.844Z,5.85
2023-03-06T08:31:48.432Z,5.96
2023-03-06T08:34:17.498Z,6.09
2023-03-06T08:36:44.008Z,5.54
2023-03-06T08:39:10.441Z,6.17
2023-03-06T08:41:37.799Z,6.24
2023-03-06T08:44:04.651Z,6.17
2023-03-06T08:46:32.688Z,6.33
2023-03-06T08:48:59.260Z,6.33
2023-03-06T08:51:26.590Z,6.91
2023-03-06T08:53:53.130Z,6.79
2023-03-06T08:56:22.520Z,7.21
2023-03-06T08:58:49.591Z,7.78
2023-03-06T09:01:24.115Z,8.02
2023-03-06T09:03:50.921Z,8.44
2023-03-06T09:06:17.511Z,8.72
2023-03-06T09:08:44.503Z,8.44
2023-03-06T09:11:12.618Z,8.52
2023-03-06T09:13:39.112Z,9.25
2023-03-06T09:16:06.508Z,9.59
2023-03-06T09:18:33.176Z,9.87
2023-03-06T09:20:59.605Z,9.68
2023-03-06T09:23:26.111Z,9.88
2023-03-06T09:25:53.683Z,10.35
2023-03-06T09:28:20.368Z,10.80
2023-03-06T09:30:46.985Z,10.76
2023-03-06T09:33:14.528Z,11.54
2023-03-06T09:35:53.800Z,11.61
2023-03-06T09:38:21.323Z,11.66
2023-03-06T09:41:04.017Z,11.63
2023-03-06T09:43:40.554Z,12.15
2023-03-06T09:46:32.840Z,11.87
2023-03-06T09:49:21.417Z,12.17
2023-03-06T09:51:56.840Z,12.67
2023-03-06T09:54:46.054Z,12.31
2023-03-06T09:57:20.158Z,12.93
2023-03-06T09:59:49.180Z,12.79
2023-03-06T10:02:37.647Z,13.24
2023-03-06T10:05:06.878Z,13.02
2023-03-06T10:07:44.743Z,13.23
2023-03-06T10:10:23.609Z,12.97
2023-03-06T10:13:13.851Z,13.24
2023-03-06T10:15:41.797Z,13.47
2023-03-06T10:18:10.556Z,12.80
2023-03-06T10:20:43.638Z,13.06
2023-03-06T10:23:11.165Z,13.46
2023-03-06T10:25:56.789Z,12.93
2023-03-06T10:28:37.082Z,12.74
2023-03-06T10:31:12.215Z,13.19
2023-03-06T10:34:06.092Z,12.22
2023-03-06T10:36:32.478Z,12.15
2023-03-06T10:38:59.780Z,12.60
2023-03-06T10:41:27.688Z,12.76
2023-03-06T10:44:00.096Z,12.55
2023-03-06T10:46:44.045Z,12.46
2023-03-06T10:49:30.437Z,12.26
2023-03-06T10:52:05.563Z,12.91
2023-03-06T10:54:35.050Z,13.17
2023-03-06T10:57:19.442Z,13.24
2023-03-06T10:59:53.515Z,12.75
2023-03-06T11:02:30.725Z,12.98
2023-03-06T11:04:59.055Z,12.19
2023-03-06T11:07:28.400Z,12.52
2023-03-06T11:09:58.024Z,12.59
2023-03-06T11:12:29.136Z,12.52
2023-03-06T11:15:14.348Z,12.90
2023-03-06T11:17:52.477Z,12.70
2023-03-06T11:20:20.657Z,12.24
2023-03-06T11:22:56.055Z,11.64
2023-03-06T11:25:27.851Z,11.56
2023-03-06T11:28:04.291Z,11.60
2023-03-06T11:30:36.702Z,11.95
2023-03-06T11:33:15.322Z,12.39
2023-03-06T11:36:08.692Z,12.55
2023-03-06T11:38:48.988Z,12.77
2023-03-06T11:41:42.856Z,12.67
2023-03-06T11:44:23.156Z,12.12
2023-03-06T11:47:09.290Z,11.43
2023-03-06T11:49:45.152Z,11.22
2023-03-06T11:52:24.039Z,11.09
2023-03-06T11:54:54.401Z,11.14
2023-03-06T11:57:24.964Z,11.22
2023-03-06T12:00:07.819Z,11.14
2023-03-06T12:02:44.282Z,10.53
2023-03-06T12:05:28.374Z,10.59
2023-03-06T12:08:03.367Z,10.92
2023-03-06T12:10:33.389Z,11.10
2023-03-06T12:13:35.252Z,10.94
2023-03-06T12:16:25.737Z,10.54
2023-03-06T12:19:05.403Z,10.80
2023-03-06T12:21:53.493Z,10.33
2023-03-06T12:24:19.774Z,10.71
2023-03-06T12:26:49.210Z,10.55
2023-03-06T12:29:28.492Z,10.19
2023-03-06T12:32:14.637Z,9.94
2023-03-06T12:35:06.486Z,10.29
2023-03-06T12:38:03.714Z,10.17
2023-03-06T12:40:56.321Z,10.25
2023-03-06T12:43:31.678Z,10.86
2023-03-06T12:46:14.290Z,11.21
2023-03-06T12:48:42.132Z,11.06
2023-03-06T12:51:11.624Z,10.21
2023-03-06T12:53:39.649Z,10.98
2023-03-06T12:56:07.510Z,10.75
2023-03-06T12:58:35.041Z,10.84
2023-03-06T13:01:24.113Z,10.84
2023-03-06T13:04:13.301Z,10.90
2023-03-06T13:06:57.811Z,11.18
2023-03-06T13:09:55.094Z,11.13
2023-03-06T13:12:49.991Z,10.67
2023-03-06T13:15:45.805Z,10.46
2023-03-06T13:18:38.282Z,10.03
2023-03-06T13:21:05.068Z,9.64
2023-03-06T13:23:38.287Z,9.65
2023-03-06T13:26:10.627Z,9.03
2023-03-06T13:28:46.018Z,9.26
2023-03-06T13:31:26.546Z,8.83
2023-03-06T13:34:01.930Z,8.85
2023-03-06T13:36:33.016Z,8.33
2023-03-06T13:39:09.631Z,8.29
2023-03-06T13:41:40.956Z,8.64
2023-03-06T13:44:25.685Z,8.46
2023-03-06T13:47:20.818Z,7.84
2023-03-06T13:49:48.058Z,7.73
2023-03-06T13:52:35.877Z,8.25
2023-03-06T13:55:32.446Z,8.44
2023-03-06T13:58:14.172Z,8.61
2023-03-06T14:01:04.198Z,7.65
2023-03-06T14:04:12.257Z,8.77
2023-03-06T14:06:54.075Z,8.19
2023-03-06T14:09:42.311Z,7.77
2023-03-06T14:12:29.450Z,8.80
2023-03-06T14:14:59.605Z,8.00
2023-03-06T14:21:38.574Z,7.79
2023-03-06T14:31:17.139Z,7.39
2023-03-06T14:37:29.933Z,6.91
2023-03-06T14:40:35.752Z,6.56
2023-03-06T14:43:39.745Z,7.52
2023-03-06T14:49:23.068Z,7.63
2023-03-06T14:52:16.790Z,6.65
2023-03-06T14:54:58.949Z,6.83
2023-03-06T14:57:38.354Z,6.80
2023-03-06T15:00:24.636Z,6.25
2023-03-06T15:03:03.128Z,6.75
2023-03-06T15:09:27.261Z,6.26
2023-03-06T15:12:50.137Z,6.87
2023-03-06T15:19:29.913Z,6.83
2023-03-06T15:22:25.162Z,5.81
2023-03-06T15:28:26.637Z,5.80
2023-03-06T15:31:29.355Z,6.70
2023-03-06T15:40:24.043Z,5.30
2023-03-06T15:43:17.445Z,6.40
2023-03-06T15:45:46.293Z,5.80
2023-03-06T15:48:32.790Z,5.48
2023-03-06T15:51:22.541Z,5.93
2023-03-06T15:54:12.963Z,5.61
2023-03-06T15:56:50.064Z,6.58
2023-03-06T15:59:28.649Z,6.19
2023-03-06T16:02:43.379Z,6.44
2023-03-06T16:05:16.370Z,6.07
2023-03-06T16:10:40.619Z,6.38
2023-03-06T16:13:28.173Z,6.34
2023-03-06T16:18:49.949Z,5.79
2023-03-06T16:21:16.869Z,6.27
2023-03-06T16:23:43.544Z,4.98
2023-03-06T16:26:22.487Z,5.29
2023-03-06T16:28:49.021Z,5.49
2023-03-06T16:31:15.655Z,5.11
2023-03-06T16:33:45.360Z,5.19
2023-03-06T16:36:19.423Z,4.16
2023-03-06T16:38:46.608Z,4.93
2023-03-06T16:41:15.300Z,4.58
2023-03-06T16:43:41.942Z,3.97
2023-03-06T16:46:26.404Z,4.21
2023-03-06T16:49:12.534Z,4.55
2023-03-06T16:51:40.430Z,3.88
2023-03-06T16:54:07.086Z,4.58
2023-03-06T16:56:33.585Z,4.56
2023-03-06T16:59:00.133Z,4.78
2023-03-06T17:01:26.729Z,4.27
2023-03-06T17:03:53.265Z,4.20
2023-03-06T17:06:24.527Z,4.44
2023-03-06T17:08:58.064Z,4.23
2023-03-06T17:11:25.044Z,4.58
2023-03-06T17:13:55.926Z,4.18
2023-03-06T17:16:23.135Z,3.96
2023-03-06T17:18:50.675Z,4.45
2023-03-06T17:24:56.012Z,4.18
2023-03-06T17:27:23.188Z,4.41
2023-03-06T17:30:08.409Z,4.85
2023-03-06T17:32:42.923Z,4.50
2023-03-06T17:35:20.489Z,4.57
2023-03-06T17:37:57.674Z,4.39
2023-03-06T17:43:04.611Z,4.25
2023-03-06T17:45:36.261Z,4.37
2023-03-06T17:48:09.006Z,4.21
2023-03-06T17:50:38.117Z,4.11
2023-03-06T17:53:07.803Z,3.62
2023-03-06T17:55:38.028Z,4.41
2023-03-06T17:58:04.486Z,4.03
2023-03-06T18:00:34.597Z,4.17
2023-03-06T18:03:01.206Z,4.33
2023-03-06T18:05:27.744Z,3.74
2023-03-06T18:07:59.965Z,4.06
2023-03-06T18:10:26.712Z,4.16
2023-03-06T18:12:54.170Z,4.21
2023-03-06T18:15:24.887Z,4.12
2023-03-06T18:17:59.209Z,3.53
2023-03-06T18:20:25.916Z,4.15
2023-03-06T18:22:52.300Z,4.37
2023-03-06T18:25:35.475Z,4.25
2023-03-06T18:28:02.082Z,3.95
2023-03-06T18:30:28.750Z,4.09
2023-03-06T18:32:55.258Z,3.85
2023-03-06T18:35:21.961Z,4.29
2023-03-06T18:37:48.475Z,3.67
2023-03-06T18:40:28.949Z,3.65
2023-03-06T18:42:55.348Z,3.96
2023-03-06T18:45:31.156Z,3.62
2023-03-06T18:48:25.059Z,3.31
2023-03-06T18:50:54.378Z,3.97
2023-03-06T18:53:25.497Z,3.27
2023-03-06T18:55:57.660Z,3.88
2023-03-06T18:58:24.638Z,3.08
2023-03-06T19:00:51.389Z,3.00
2023-03-06T19:03:20.201Z,3.61
2023-03-06T19:06:03.865Z,3.03
2023-03-06T19:08:33.557Z,3.16
2023-03-06T19:11:18.241Z,3.69
2023-03-06T19:13:44.988Z,3.82
2023-03-06T19:19:18.696Z,4.00
2023-03-06T19:21:45.340Z,3.48
2023-03-06T19:24:14.048Z,3.70
2023-03-06T19:26:41.965Z,3.54
2023-03-06T19:29:08.359Z,3.58
2023-03-06T19:31:34.872Z,3.46
2023-03-06T19:34:04.287Z,3.51
2023-03-06T19:36:49.937Z,3.52
2023-03-06T19:39:37.065Z,3.77
2023-03-06T19:42:14.281Z,3.15
2023-03-06T19:44:58.854Z,3.17
2023-03-06T19:47:25.455Z,3.50
2023-03-06T19:53:39.300Z,3.33
2023-03-06T19:57:12.298Z,2.89
2023-03-06T20:03:35.907Z,2.82
2023-03-06T20:06:06.219Z,3.77
2023-03-06T20:08:33.000Z,3.55
2023-03-06T20:10:59.408Z,3.92
2023-03-06T20:13:25.779Z,3.38
2023-03-06T20:15:52.246Z,3.78
2023-03-06T20:18:18.798Z,3.87
2023-03-06T20:20:45.317Z,4.29
2023-03-06T20:23:11.907Z,3.40
2023-03-06T20:25:38.357Z,3.62
2023-03-06T20:28:05.015Z,3.34
2023-03-06T20:30:37.836Z,4.32
2023-03-06T20:33:05.316Z,3.82
2023-03-06T20:35:31.860Z,3.87
2023-03-06T20:37:59.735Z,4.21
2023-03-06T20:40:40.098Z,4.35
2023-03-06T20:43:37.088Z,3.72
2023-03-06T20:46:05.964Z,3.56
2023-03-06T20:48:32.492Z,4.14
2023-03-06T20:51:00.684Z,4.56
2023-03-06T20:53:27.195Z,4.29
2023-03-06T20:55:57.775Z,4.36
2023-03-06T20:58:30.186Z,3.42
2023-03-06T21:01:06.769Z,4.33
2023-03-06T21:03:36.353Z,4.68
2023-03-06T21:08:49.098Z,4.03
2023-03-06T21:12:16.521Z,4.82
2023-03-06T21:14:45.776Z,3.73
2023-03-06T21:17:13.891Z,3.99
2023-03-06T21:19:43.119Z,3.74
2023-03-06T21:22:21.840Z,4.64
2023-03-06T21:24:50.989Z,3.91
2023-03-06T21:27:17.479Z,3.83
2023-03-06T21:29:59.666Z,4.32
2023-03-06T21:32:31.317Z,3.62
2023-03-06T21:34:57.914Z,4.65
2023-03-06T21:37:27.837Z,4.75
2023-03-06T21:39:57.120Z,3.92
2023-03-06T21:42:26.420Z,3.87
2023-03-06T21:44:52.972Z,4.97
2023-03-06T21:47:46.877Z,3.79
2023-03-06T21:50:41.956Z,4.84
2023-03-06T21:53:55.589Z,4.78
2023-03-06T21:56:28.518Z,3.59
2023-03-06T21:59:36.512Z,3.48
2023-03-06T22:03:11.156Z,4.63
2023-03-06T22:05:36.766Z,3.75
2023-03-06T22:08:19.164Z,3.34
2023-03-06T22:11:17.034Z,4.56
2023-03-06T22:20:24.613Z,3.31
2023-03-06T22:22:51.071Z,4.10
2023-03-06T22:28:10.476Z,3.24
2023-03-06T22:30:54.668Z,3.52
2023-03-06T22:33:49.561Z,3.40
2023-03-06T22:36:22.580Z,4.01
2023-03-06T22:39:13.474Z,4.12
2023-03-06T22:42:20.986Z,3.57
2023-03-06T22:45:15.371Z,4.45
2023-03-06T22:47:41.905Z,4.52
2023-03-06T22:50:16.102Z,4.49
2023-03-06T22:52:42.663Z,4.35
2023-03-06T22:55:09.682Z,4.10
2023-03-06T22:58:06.773Z,4.65
2023-03-06T23:00:53.678Z,3.43
2023-03-06T23:04:05.097Z,4.19
2023-03-06T23:06:46.690Z,3.59
2023-03-06T23:30:52.706Z,3.92
2023-03-06T23:33:43.373Z,4.74
2023-03-06T23:44:27.950Z,3.52
2023-03-06T23:51:18.641Z,4.70
